Time;durP1;ratioP1;P1;durP2;ratioP2;P2;SDS_P1;SDS_P2;PMS_P1;PMS_P2;Temp;Humidity;BMP_temperature;BMP_pressure;BME280_temperature;BME280_humidity;BME280_pressure;Samples;Min_cycle;Max_cycle;Signal;HPM_P1;HPM_P2
2023/03/11 00:00:39;;;;;;;;;;;;;;;-140.72;0.00;53330.44;5076044;28;20286;-72
2023/03/11 00:03:06;;;;;;;;;;;;;;;-140.72;0.00;53297.97;5071255;28;19921;-72
2023/03/11 00:05:33;;;;;;;;;;;;;;;-140.72;0.00;53291.88;5066608;28;19929;-72
2023/03/11 00:07:59;;;;;;;;;;;;;;;-140.72;0.00;53312.19;5074944;28;19926;-72
2023/03/11 00:10:28;;;;;;;;;;;;;;;-140.72;0.00;53295.94;5074229;28;19929;-72
2023/03/11 00:12:53;;;;;;;;;;;;;;;-140.72;0.00;53293.91;5070459;28;20054;-72
2023/03/11 00:15:19;;;;;;;;;;;;;;;-140.72;0.00;53300.00;5074579;28;20011;-71
2023/03/11 00:17:45;;;;;;;;;;;;;;;-140.72;0.00;53322.34;5062228;28;19921;-71
2023/03/11 00:20:15;;;;;;;;;;;;;;;-140.72;0.00;53342.63;5072276;28;19943;-71
2023/03/11 00:22:40;;;;;;;;;;;;;;;-140.72;0.00;53308.13;5074205;28;20000;-72
2023/03/11 00:25:06;;;;;;;;;;;;;;;-140.72;0.00;53332.47;5069532;28;20294;-72
2023/03/11 00:27:31;;;;;;;;;;;;;;;-140.72;0.00;53336.53;5072357;28;19963;-72
2023/03/11 00:29:56;;;;;;;;;;;;;;;-140.72;0.00;53328.41;5070472;28;19920;-72
2023/03/11 00:32:22;;;;;;;;;;;;;;;-140.72;0.00;53358.88;5072142;28;20012;-72
2023/03/11 00:34:48;;;;;;;;;;;;;;;-140.72;0.00;53320.31;5070655;28;19927;-71
2023/03/11 00:37:13;;;;;;;;;;;;;;;-140.72;0.00;53320.31;5080648;28;20367;-71
2023/03/11 00:39:38;;;;;;;;;;;;;;;-140.72;0.00;53326.41;5069265;28;19931;-71
2023/03/11 00:42:04;;;;;;;;;;;;;;;-140.72;0.00;53322.34;5067813;28;19921;-71
2023/03/11 00:44:29;;;;;;;;;;;;;;;-140.72;0.00;53318.28;5071393;28;20025;-71
2023/03/11 00:46:54;;;;;;;;;;;;;;;-140.72;0.00;53320.31;5069833;28;19956;-71
2023/03/11 00:49:19;;;;;;;;;;;;;;;-140.72;0.00;53336.53;5072626;28;19967;-72
2023/03/11 00:51:44;;;;;;;;;;;;;;;-140.72;0.00;53320.31;5075708;28;19921;-72
2023/03/11 00:54:10;;;;;;;;;;;;;;;-140.72;0.00;53318.28;5066521;28;19920;-71
2023/03/11 00:56:35;;;;;;;;;;;;;;;-140.72;0.00;53352.78;5073635;28;19936;-72
2023/03/11 00:59:00;;;;;;;;;;;;;;;-140.72;0.00;53283.78;5101537;28;19924;-72
2023/03/11 01:01:25;;;;;;;;;;;;;;;-140.72;0.00;53308.13;5069976;28;19916;-71
2023/03/11 01:03:51;;;;;;;;;;;;;;;-140.72;0.00;53316.25;5071452;28;20382;-71
2023/03/11 01:06:18;;;;;;;;;;;;;;;-140.72;0.00;53308.13;5070922;28;20357;-71
2023/03/11 01:08:43;;;;;;;;;;;;;;;-140.72;0.00;53283.78;5101862;28;19990;-71
2023/03/11 01:11:08;;;;;;;;;;;;;;;-140.72;0.00;53324.38;5070493;28;19920;-71
2023/03/11 01:13:34;;;;;;;;;;;;;;;-140.72;0.00;53362.94;5073352;28;19920;-71
2023/03/11 01:16:00;;;;;;;;;;;;;;;-140.72;0.00;53324.38;5073903;28;20370;-72
2023/03/11 01:18:25;;;;;;;;;;;;;;;-140.72;0.00;53348.72;5070697;28;19929;-72
2023/03/11 01:20:50;;;;;;;;;;;;;;;-140.72;0.00;53304.06;5068729;28;19928;-72
2023/03/11 01:23:16;;;;;;;;;;;;;;;-140.72;0.00;53300.00;5071714;28;19916;-71
2023/03/11 01:25:41;;;;;;;;;;;;;;;-140.72;0.00;53324.38;5072546;28;19920;-71
2023/03/11 01:28:07;;;;;;;;;;;;;;;-140.72;0.00;53377.13;5066550;28;19947;-72
2023/03/11 01:30:33;;;;;;;;;;;;;;;-140.72;0.00;53328.41;5072355;28;19920;-72
2023/03/11 01:32:58;;;;;;;;;;;;;;;-140.72;0.00;53324.38;5073884;28;20297;-72
2023/03/11 01:35:38;;;;;;;;;;;;;;;-140.72;0.00;53332.47;5063670;28;19928;-72
2023/03/11 01:38:03;;;;;;;;;;;;;;;-140.72;0.00;53385.25;5061398;28;19943;-72
2023/03/11 01:40:31;;;;;;;;;;;;;;;-140.72;0.00;53371.03;5073134;28;19920;-71
2023/03/11 01:42:56;;;;;;;;;;;;;;;-140.72;0.00;53344.66;5087019;28;20380;-71
2023/03/11 01:45:27;;;;;;;;;;;;;;;-140.72;0.00;53364.97;5074028;28;19942;-72
2023/03/11 01:47:53;;;;;;;;;;;;;;;-140.72;0.00;53401.50;5070484;28;19920;-72
2023/03/11 01:50:18;;;;;;;;;;;;;;;-140.72;0.00;53401.50;5071937;28;19920;-72
2023/03/11 01:52:43;;;;;;;;;;;;;;;-140.72;0.00;53344.66;5068107;28;19963;-71
2023/03/11 01:55:16;;;;;;;;;;;;;;;-140.72;0.00;53332.47;5067105;28;19916;-71
2023/03/11 01:57:42;;;;;;;;;;;;;;;-140.72;0.00;53344.66;5068523;28;19916;-71
2023/03/11 02:00:11;;;;;;;;;;;;;;;-140.72;0.00;53375.09;5074311;28;19916;-71
2023/03/11 02:02:40;;;;;;;;;;;;;;;-140.72;0.00;53389.31;5062666;28;20008;-71
2023/03/11 02:05:06;;;;;;;;;;;;;;;-140.72;0.00;53295.94;5068651;28;19948;-71
2023/03/11 02:07:32;;;;;;;;;;;;;;;-140.72;0.00;53318.28;5065700;28;19920;-71
2023/03/11 02:09:57;;;;;;;;;;;;;;;-140.72;0.00;53369.00;5066520;28;20379;-72
2023/03/11 02:12:23;;;;;;;;;;;;;;;-140.72;0.00;53318.28;5062875;28;20545;-71
2023/03/11 02:14:49;;;;;;;;;;;;;;;-140.72;0.00;53360.91;5075361;28;19924;-71
2023/03/11 02:17:15;;;;;;;;;;;;;;;-140.72;0.00;53340.59;5069204;28;19920;-71
2023/03/11 02:19:40;;;;;;;;;;;;;;;-140.72;0.00;53344.66;5069786;28;19916;-71
2023/03/11 02:22:06;;;;;;;;;;;;;;;-140.72;0.00;53362.94;5060640;28;19952;-72
2023/03/11 02:24:50;;;;;;;;;;;;;;;-140.72;8.61;53350.75;5069803;28;20377;-72
2023/03/11 02:27:17;;;;;;;;;;;;;;;-140.72;14.58;53328.41;5096405;28;19917;-71
2023/03/11 02:29:43;;;;;;;;;;;;;;;-140.72;22.50;53328.41;5065136;28;19923;-72
2023/03/11 02:32:09;;;;;;;;;;;;;;;-140.72;31.97;53381.19;5066925;28;19921;-72
2023/03/11 02:34:35;;;;;;;;;;;;;;;-140.72;42.30;53379.16;5065715;28;19956;-72
2023/03/11 02:37:03;;;;;;;;;;;;;;;-140.72;50.79;53354.81;5096323;28;19974;-71
2023/03/11 02:39:32;;;;;;;;;;;;;;;-140.72;58.65;53338.56;5072116;28;19920;-72
2023/03/11 02:41:58;;;;;;;;;;;;;;;-140.72;67.68;53383.22;5065398;28;19983;-71
2023/03/11 02:44:24;;;;;;;;;;;;;;;-140.72;78.99;53356.84;5070147;28;19920;-72
2023/03/11 02:46:49;;;;;;;;;;;;;;;-140.72;100.00;53389.31;5068505;28;20413;-71
2023/03/11 02:49:15;;;;;;;;;;;;;;;-140.72;100.00;53334.50;5065406;28;20384;-71
2023/03/11 02:51:40;;;;;;;;;;;;;;;-140.72;100.00;53352.78;5065982;28;20308;-71
2023/03/11 02:54:05;;;;;;;;;;;;;;;-140.72;100.00;53346.69;5078415;28;20358;-71
2023/03/11 02:56:31;;;;;;;;;;;;;;;-140.72;100.00;53362.94;5071245;28;19924;-71
2023/03/11 02:58:56;;;;;;;;;;;;;;;-140.72;100.00;53360.91;5071981;28;19973;-72
2023/03/11 03:01:22;;;;;;;;;;;;;;;-140.72;100.00;53377.13;5075907;28;20268;-72
2023/03/11 03:03:47;;;;;;;;;;;;;;;-140.72;100.00;53389.31;5071682;28;20409;-71
2023/03/11 03:06:12;;;;;;;;;;;;;;;-140.72;100.00;53342.63;5097967;28;19920;-71
2023/03/11 03:08:37;;;;;;;;;;;;;;;-140.72;100.00;53342.63;5059124;28;19927;-71
2023/03/11 03:11:03;;;;;;;;;;;;;;;-140.72;100.00;53383.22;5071076;28;19917;-72
2023/03/11 03:13:28;;;;;;;;;;;;;;;-140.72;100.00;53364.97;5059540;28;20007;-71
2023/03/11 03:18:56;;;;;;;;;;;;;;;-140.72;100.00;53334.50;5068707;28;19923;-72
2023/03/11 03:24:24;;;;;;;;;;;;;;;-140.72;100.00;53373.06;5073495;28;20012;-72
2023/03/11 03:26:50;;;;;;;;;;;;;;;-140.72;100.00;53393.38;5075870;28;20357;-71
2023/03/11 03:29:16;;;;;;;;;;;;;;;-140.72;100.00;53354.81;5057846;28;19916;-72
2023/03/11 03:35:07;;;;;;;;;;;;;;;-140.72;100.00;53362.94;5066421;28;19959;-72
2023/03/11 03:43:38;;;;;;;;;;;;;;;-140.72;100.00;53383.22;5065440;28;19931;-72
2023/03/11 03:46:04;;;;;;;;;;;;;;;-140.72;100.00;53373.06;5074170;28;19917;-72
2023/03/11 03:48:29;;;;;;;;;;;;;;;-140.72;100.00;53393.38;5071419;28;19917;-72
2023/03/11 03:51:17;;;;;;;;;;;;;;;-140.72;100.00;53389.31;5068691;28;20405;-72
2023/03/11 03:53:42;;;;;;;;;;;;;;;-140.72;100.00;53389.31;5068986;28;19922;-72
2023/03/11 03:56:09;;;;;;;;;;;;;;;-140.72;100.00;53373.06;5075331;28;20006;-72
2023/03/11 03:58:34;;;;;;;;;;;;;;;-140.72;100.00;53358.88;5080735;28;19921;-71
2023/03/11 04:00:59;;;;;;;;;;;;;;;-140.72;100.00;53395.41;5065135;28;20302;-72
2023/03/11 04:03:26;;;;;;;;;;;;;;;-140.72;100.00;53389.31;5075667;28;20347;-71
2023/03/11 04:05:51;;;;;;;;;;;;;;;-140.72;100.00;53371.03;5062491;28;19928;-71
2023/03/11 04:08:16;;;;;;;;;;;;;;;-140.72;100.00;53364.97;5064456;28;19921;-71
2023/03/11 04:10:41;;;;;;;;;;;;;;;-140.72;100.00;53375.09;5071285;28;19923;-71
2023/03/11 04:13:07;;;;;;;;;;;;;;;-140.72;100.00;53369.00;5074113;28;19915;-71
2023/03/11 04:15:32;;;;;;;;;;;;;;;-140.72;100.00;53385.25;5067961;28;19999;-71
2023/03/11 04:17:57;;;;;;;;;;;;;;;-140.72;100.00;53381.19;5083940;28;19968;-72
2023/03/11 04:20:22;;;;;;;;;;;;;;;-140.72;100.00;53362.94;5071106;28;19920;-72
2023/03/11 04:22:47;;;;;;;;;;;;;;;-140.72;100.00;53344.66;5073099;28;20005;-71
2023/03/11 04:25:13;;;;;;;;;;;;;;;-140.72;100.00;53401.50;5063822;28;19923;-71
2023/03/11 04:27:41;;;;;;;;;;;;;;;-140.72;100.00;53371.03;5074674;28;19944;-71
2023/03/11 04:30:07;;;;;;;;;;;;;;;-140.72;100.00;53377.13;5101995;28;19968;-71
2023/03/11 04:32:32;;;;;;;;;;;;;;;-140.72;100.00;53387.28;5073782;28;20415;-72
2023/03/11 04:34:57;;;;;;;;;;;;;;;-140.72;100.00;53389.31;5064922;28;19921;-71
2023/03/11 04:37:26;;;;;;;;;;;;;;;-140.72;100.00;53375.09;5067781;28;19973;-72
2023/03/11 04:39:52;;;;;;;;;;;;;;;-140.72;100.00;53397.44;5066431;28;19969;-71
2023/03/11 04:42:18;;;;;;;;;;;;;;;-140.72;100.00;53389.31;5069932;28;19924;-72
2023/03/11 04:44:43;;;;;;;;;;;;;;;-140.72;100.00;53348.72;5068329;28;19917;-72
2023/03/11 04:47:08;;;;;;;;;;;;;;;-140.72;100.00;53377.13;5065955;28;20001;-72
2023/03/11 04:49:33;;;;;;;;;;;;;;;-140.72;100.00;53332.47;5060941;28;20375;-71
2023/03/11 04:51:58;;;;;;;;;;;;;;;-140.72;100.00;53379.16;5067310;28;19924;-72
2023/03/11 04:54:24;;;;;;;;;;;;;;;-140.72;100.00;53401.50;5062912;28;19923;-72
2023/03/11 04:56:49;;;;;;;;;;;;;;;-140.72;100.00;53385.25;5089592;28;19922;-72
2023/03/11 04:59:14;;;;;;;;;;;;;;;-140.72;100.00;53369.00;5074539;28;20290;-72
2023/03/11 05:01:39;;;;;;;;;;;;;;;-140.72;100.00;53364.97;5060731;28;20368;-72
2023/03/11 05:04:05;;;;;;;;;;;;;;;-140.72;100.00;53417.72;5073671;28;20296;-72
2023/03/11 05:06:30;;;;;;;;;;;;;;;-140.72;100.00;53385.25;5073669;28;19923;-72
2023/03/11 05:08:55;;;;;;;;;;;;;;;-140.72;100.00;53399.47;5069771;28;20450;-72
2023/03/11 05:11:20;;;;;;;;;;;;;;;-140.72;100.00;53377.13;5075416;28;20291;-72
2023/03/11 05:13:46;;;;;;;;;;;;;;;-140.72;100.00;53362.94;5074047;28;19940;-72
2023/03/11 05:16:11;;;;;;;;;;;;;;;-140.72;100.00;53354.81;5060810;28;19927;-72
2023/03/11 05:18:36;;;;;;;;;;;;;;;-140.72;100.00;53391.34;5073868;28;19916;-72
2023/03/11 05:21:02;;;;;;;;;;;;;;;-140.72;100.00;53373.06;5074316;28;19964;-72
2023/03/11 05:23:27;;;;;;;;;;;;;;;-140.72;100.00;53389.31;5069165;28;19924;-72
2023/03/11 05:25:52;;;;;;;;;;;;;;;-140.72;100.00;53381.19;5076212;28;19920;-72
2023/03/11 05:28:17;;;;;;;;;;;;;;;-140.72;100.00;53375.09;5070820;28;20333;-72
2023/03/11 05:30:42;;;;;;;;;;;;;;;-140.72;100.00;53417.72;5076680;28;19983;-72
2023/03/11 05:33:08;;;;;;;;;;;;;;;-140.72;100.00;53352.78;5073734;28;20329;-72
2023/03/11 05:35:33;;;;;;;;;;;;;;;-140.72;100.00;53413.66;5073528;28;20459;-72
2023/03/11 05:37:58;;;;;;;;;;;;;;;-140.72;100.00;53421.78;5073029;28;20387;-72
2023/03/11 05:40:23;;;;;;;;;;;;;;;-140.72;100.00;53405.56;5073550;28;19965;-72
2023/03/11 05:42:49;;;;;;;;;;;;;;;-140.72;100.00;53401.50;5068670;28;19990;-72
2023/03/11 05:45:14;;;;;;;;;;;;;;;-140.72;100.00;53423.81;5114443;27;19920;-72
2023/03/11 05:47:41;;;;;;;;;;;;;;;-140.72;100.00;53373.06;5071822;28;19916;-74
2023/03/11 05:50:06;;;;;;;;;;;;;;;-140.72;100.00;53381.19;5069796;28;19998;-72
2023/03/11 05:52:32;;;;;;;;;;;;;;;-140.72;100.00;53369.00;5067823;28;20370;-72
2023/03/11 05:54:58;;;;;;;;;;;;;;;-140.72;100.00;53438.03;5065897;28;19974;-72
2023/03/11 05:57:23;;;;;;;;;;;;;;;-140.72;100.00;53397.44;5069838;28;19921;-72
2023/03/11 05:59:48;;;;;;;;;;;;;;;-140.72;100.00;53373.06;5069287;28;19924;-72
2023/03/11 06:02:14;;;;;;;;;;;;;;;-140.72;100.00;53401.50;5066803;28;19990;-72
2023/03/11 06:04:39;;;;;;;;;;;;;;;-140.72;100.00;53383.22;5089210;28;19916;-72
2023/03/11 06:07:04;;;;;;;;;;;;;;;-140.72;100.00;53389.31;5105273;28;20336;-72
2023/03/11 06:09:30;;;;;;;;;;;;;;;-140.72;100.00;53379.16;5066075;28;19920;-72
2023/03/11 06:11:55;;;;;;;;;;;;;;;-140.72;100.00;53405.56;5066274;28;19916;-74
2023/03/11 06:14:20;;;;;;;;;;;;;;;-140.72;100.00;53381.19;5070270;28;20382;-72
2023/03/11 06:16:46;;;;;;;;;;;;;;;-140.72;100.00;53405.56;5100380;28;20291;-72
2023/03/11 06:19:11;;;;;;;;;;;;;;;-140.72;100.00;53391.34;5069924;28;20259;-75
2023/03/11 06:21:36;;;;;;;;;;;;;;;-140.72;100.00;53401.50;5065689;28;20209;-72
2023/03/11 06:24:02;;;;;;;;;;;;;;;-140.72;100.00;53393.38;5069351;28;19927;-72
2023/03/11 06:26:27;;;;;;;;;;;;;;;-140.72;100.00;53423.81;5100774;28;19986;-72
2023/03/11 06:28:53;;;;;;;;;;;;;;;-140.72;100.00;53371.03;5066726;28;19922;-74
2023/03/11 06:31:23;;;;;;;;;;;;;;;-140.72;100.00;53419.75;5069110;28;19972;-73
2023/03/11 06:33:48;;;;;;;;;;;;;;;-140.72;100.00;53413.66;5068972;28;19935;-73
2023/03/11 06:36:14;;;;;;;;;;;;;;;-140.72;100.00;53403.53;5071416;28;19917;-73
2023/03/11 06:38:40;;;;;;;;;;;;;;;-140.72;100.00;53397.44;5066521;28;20390;-75
2023/03/11 06:41:05;;;;;;;;;;;;;;;-140.72;100.00;53381.19;5059149;28;19920;-82
2023/03/11 06:43:31;;;;;;;;;;;;;;;-140.72;100.00;53411.63;5090461;28;19923;-72
2023/03/11 06:45:57;;;;;;;;;;;;;;;-140.72;100.00;53397.44;5067623;28;19923;-73
2023/03/11 06:48:23;;;;;;;;;;;;;;;-140.72;100.00;53429.91;5066356;28;20298;-73
2023/03/11 06:50:54;;;;;;;;;;;;;;;-140.72;100.00;53401.50;5070050;28;19920;-73
2023/03/11 06:53:20;;;;;;;;;;;;;;;-140.72;100.00;53401.50;5069490;28;19968;-72
2023/03/11 06:55:57;;;;;;;;;;;;;;;-140.72;100.00;53369.00;5072418;28;19999;-72
2023/03/11 06:58:22;;;;;;;;;;;;;;;-140.72;100.00;53381.19;5065979;28;20394;-73
2023/03/11 07:00:47;;;;;;;;;;;;;;;-140.72;100.00;53364.97;5101642;28;20031;-72
2023/03/11 07:03:13;;;;;;;;;;;;;;;-140.72;100.00;53338.56;5073560;28;19927;-74
2023/03/11 07:05:38;;;;;;;;;;;;;;;-140.72;100.00;53314.22;5073628;28;19928;-72
2023/03/11 07:08:03;;;;;;;;;;;;;;;-140.72;100.00;53369.00;5070841;28;19927;-72
2023/03/11 07:10:28;;;;;;;;;;;;;;;-140.72;100.00;53403.53;5069293;28;19923;-72
2023/03/11 07:12:54;;;;;;;;;;;;;;;-140.72;100.00;53397.44;5070911;28;19928;-73
2023/03/11 07:15:19;;;;;;;;;;;;;;;-140.72;100.00;53385.25;5068444;28;19916;-72
2023/03/11 07:17:44;;;;;;;;;;;;;;;-140.72;100.00;53389.31;5067446;28;19924;-73
2023/03/11 07:20:10;;;;;;;;;;;;;;;-140.72;100.00;53379.16;5101616;28;19916;-73
2023/03/11 07:22:35;;;;;;;;;;;;;;;-140.72;100.00;53371.03;5072299;28;19924;-73
2023/03/11 07:25:00;;;;;;;;;;;;;;;-140.72;100.00;53401.50;5072685;28;19916;-73
2023/03/11 07:27:26;;;;;;;;;;;;;;;-140.72;100.00;53350.75;5073061;28;20320;-73
2023/03/11 07:29:51;;;;;;;;;;;;;;;-140.72;100.00;53389.31;5069080;28;20014;-72
2023/03/11 07:32:17;;;;;;;;;;;;;;;-140.72;100.00;53342.63;5068239;28;20292;-73
2023/03/11 07:34:42;;;;;;;;;;;;;;;-140.72;100.00;53338.56;5071761;28;20009;-73
2023/03/11 07:37:07;;;;;;;;;;;;;;;-140.72;100.00;53354.81;5069676;28;19924;-73
2023/03/11 07:39:32;;;;;;;;;;;;;;;-140.72;100.00;53342.63;5104536;28;20040;-73
2023/03/11 07:41:57;;;;;;;;;;;;;;;-140.72;100.00;53393.38;5071267;28;19920;-72
2023/03/11 07:44:23;;;;;;;;;;;;;;;-140.72;100.00;53352.78;5071457;28;19916;-73
2023/03/11 07:46:48;;;;;;;;;;;;;;;-140.72;100.00;53346.69;5068115;28;19927;-73
2023/03/11 07:49:13;;;;;;;;;;;;;;;-140.72;100.00;53364.97;5069958;28;19916;-73
2023/03/11 07:51:42;;;;;;;;;;;;;;;-140.72;100.00;53346.69;5074372;28;19932;-73
2023/03/11 07:54:09;;;;;;;;;;;;;;;-140.72;100.00;53356.84;5069409;28;19948;-73
2023/03/11 07:56:34;;;;;;;;;;;;;;;-140.72;100.00;53316.25;5067598;28;19928;-73
2023/03/11 07:59:03;;;;;;;;;;;;;;;-140.72;100.00;53346.69;5103532;28;19920;-73
2023/03/11 08:01:34;;;;;;;;;;;;;;;-140.72;100.00;53314.22;5064239;28;20326;-74
2023/03/11 08:04:01;;;;;;;;;;;;;;;-140.72;100.00;53342.63;5066585;28;19997;-72
2023/03/11 08:06:29;;;;;;;;;;;;;;;-140.72;100.00;53314.22;5070216;28;19924;-73
2023/03/11 08:09:27;;;;;;;;;;;;;;;-140.72;100.00;53308.13;5068155;28;19917;-73
2023/03/11 08:11:53;;;;;;;;;;;;;;;-140.72;66.95;53308.13;5072701;28;19920;-73
2023/03/11 08:14:23;;;;;;;;;;;;;;;-140.72;36.36;53281.75;5067698;28;19921;-73
2023/03/11 08:16:48;;;;;;;;;;;;;;;-140.72;15.06;53283.78;5070565;28;19920;-73
2023/03/11 08:19:14;;;;;;;;;;;;;;;-140.72;0.00;53275.66;5068987;28;19928;-73
2023/03/11 08:21:39;;;;;;;;;;;;;;;-140.72;0.00;53308.13;5066834;28;19920;-73
2023/03/11 08:24:18;;;;;;;;;;;;;;;-140.72;0.00;53306.09;5069510;28;20023;-73
2023/03/11 08:26:43;;;;;;;;;;;;;;;-140.72;0.00;53275.66;5067025;28;19917;-73
2023/03/11 08:29:34;;;;;;;;;;;;;;;-140.72;0.00;53281.75;5067087;28;19925;-73
2023/03/11 08:31:59;;;;;;;;;;;;;;;-140.72;0.00;53279.72;5068389;28;20011;-73
2023/03/11 08:34:26;;;;;;;;;;;;;;;-140.72;0.00;53247.25;5065582;28;19972;-73
2023/03/11 08:36:51;;;;;;;;;;;;;;;-140.72;0.00;53253.31;5062934;28;20009;-73
2023/03/11 08:39:16;;;;;;;;;;;;;;;-140.72;0.00;53316.25;5067102;28;19921;-73
2023/03/11 08:41:42;;;;;;;;;;;;;;;-140.72;0.00;53243.19;5064151;28;19917;-73
2023/03/11 08:44:07;;;;;;;;;;;;;;;-140.72;0.00;53291.88;5062577;28;20260;-79
2023/03/11 08:46:34;;;;;;;;;;;;;;;-140.72;0.00;53251.31;5071127;28;20399;-73
2023/03/11 08:49:02;;;;;;;;;;;;;;;-140.72;0.00;53226.94;5064802;28;19927;-74
2023/03/11 08:51:28;;;;;;;;;;;;;;;-140.72;0.00;53239.13;5103445;28;19974;-80
2023/03/11 08:53:53;;;;;;;;;;;;;;;-140.72;0.00;53231.00;5064414;28;20582;-73
2023/03/11 08:56:19;;;;;;;;;;;;;;;-140.72;0.00;53243.19;5068689;28;19966;-73
2023/03/11 08:58:44;;;;;;;;;;;;;;;-140.72;0.00;53255.34;5073453;28;19962;-72
2023/03/11 09:01:11;;;;;;;;;;;;;;;-140.72;0.00;53214.78;5068198;28;19920;-73
2023/03/11 09:03:36;;;;;;;;;;;;;;;-140.72;0.00;53226.94;5070809;28;19921;-72
2023/03/11 09:06:03;;;;;;;;;;;;;;;-140.72;0.00;53206.66;5065909;28;19999;-70
2023/03/11 09:08:29;;;;;;;;;;;;;;;-140.72;0.00;53196.50;5073409;28;20015;-74
2023/03/11 09:10:55;;;;;;;;;;;;;;;-140.72;0.00;53184.31;5067139;28;20048;-73
2023/03/11 09:13:20;;;;;;;;;;;;;;;-140.72;0.00;53190.41;5067013;28;19924;-73
2023/03/11 09:15:46;;;;;;;;;;;;;;;-140.72;0.00;53164.03;5069768;28;20057;-73
2023/03/11 09:18:13;;;;;;;;;;;;;;;-140.72;0.00;53202.59;5099889;28;20294;-72
2023/03/11 09:20:39;;;;;;;;;;;;;;;-140.72;0.00;53206.66;5071927;28;19931;-70
2023/03/11 09:23:04;;;;;;;;;;;;;;;-140.72;0.00;53192.44;5074653;28;20007;-71
2023/03/11 09:25:30;;;;;;;;;;;;;;;-140.72;0.00;53192.44;5099743;28;20002;-72
2023/03/11 09:27:55;;;;;;;;;;;;;;;-140.72;0.00;53196.50;5064221;28;19916;-72
2023/03/11 09:30:20;;;;;;;;;;;;;;;-140.72;0.00;53178.22;5072071;28;19997;-71
2023/03/11 09:32:45;;;;;;;;;;;;;;;-140.72;0.00;53190.41;5068456;28;20023;-70
2023/03/11 09:35:11;;;;;;;;;;;;;;;-140.72;0.00;53164.03;5073605;28;19952;-73
2023/03/11 09:37:36;;;;;;;;;;;;;;;-140.72;0.00;53218.81;5066731;28;19936;-73
2023/03/11 09:40:01;;;;;;;;;;;;;;;-140.72;0.00;53168.09;5067059;28;19921;-73
2023/03/11 09:42:36;;;;;;;;;;;;;;;-140.72;0.00;53194.47;5072624;28;19924;-73
2023/03/11 09:45:03;;;;;;;;;;;;;;;-140.72;0.00;53141.69;5101374;27;19916;-70
2023/03/11 09:50:42;;;;;;;;;;;;;;;-140.72;0.00;53145.75;5061479;28;19965;-70
2023/03/11 09:53:42;;;;;;;;;;;;;;;-140.72;0.00;53137.66;5076687;28;19979;-70
2023/03/11 09:56:12;;;;;;;;;;;;;;;-140.72;0.00;53157.94;5065612;28;19962;-70
2023/03/11 09:58:46;;;;;;;;;;;;;;;-140.72;0.00;53090.97;5068397;28;19935;-70
2023/03/11 10:01:14;;;;;;;;;;;;;;;-140.72;0.00;53101.13;5073486;28;19917;-72
2023/03/11 10:03:39;;;;;;;;;;;;;;;-140.72;0.00;53097.06;5069692;28;19921;-72
2023/03/11 10:06:15;;;;;;;;;;;;;;;-140.72;0.00;53117.34;5072895;28;19927;-72
2023/03/11 10:08:41;;;;;;;;;;;;;;;-140.72;0.00;53097.06;5068428;28;19924;-72
2023/03/11 10:11:24;;;;;;;;;;;;;;;-140.72;0.00;53143.72;5078889;28;19923;-72
2023/03/11 10:13:59;;;;;;;;;;;;;;;-140.72;0.00;53137.66;5069636;28;19924;-72
2023/03/11 10:16:50;;;;;;;;;;;;;;;-140.72;0.00;53113.28;5074313;28;19995;-71
2023/03/11 10:19:23;;;;;;;;;;;;;;;-140.72;0.00;53076.75;5070836;28;19916;-71
2023/03/11 10:22:00;;;;;;;;;;;;;;;-140.72;0.00;53103.16;5104582;28;19966;-70
2023/03/11 10:24:26;;;;;;;;;;;;;;;-140.72;0.00;53107.19;5072122;28;19970;-70
2023/03/11 10:26:55;;;;;;;;;;;;;;;-140.72;0.00;53105.19;5072257;28;19920;-70
2023/03/11 10:29:25;;;;;;;;;;;;;;;-140.72;0.00;53119.38;5069485;28;19925;-70
2023/03/11 10:31:57;;;;;;;;;;;;;;;-140.72;0.00;53084.88;5072481;28;20425;-70
2023/03/11 10:34:41;;;;;;;;;;;;;;;-140.72;0.00;53093.00;5072966;28;19921;-69
2023/03/11 10:37:12;;;;;;;;;;;;;;;-140.72;0.00;53117.34;5076271;28;19927;-70
2023/03/11 10:42:42;;;;;;;;;;;;;;;-140.72;0.00;53095.03;5068958;28;19923;-70
2023/03/11 10:45:11;;;;;;;;;;;;;;;-140.72;0.00;53076.75;5069777;28;20239;-72
2023/03/11 10:47:36;;;;;;;;;;;;;;;-140.72;0.00;53062.56;5076059;28;20050;-70
2023/03/11 10:50:02;;;;;;;;;;;;;;;-140.72;0.00;53105.19;5076627;28;19982;-70
2023/03/11 10:52:27;;;;;;;;;;;;;;;-140.72;0.00;53072.69;5073635;28;19928;-72
2023/03/11 10:54:59;;;;;;;;;;;;;;;-140.72;0.00;53088.94;5065764;28;19917;-71
2023/03/11 10:57:31;;;;;;;;;;;;;;;-140.72;0.00;53080.81;5076125;28;20016;-70
2023/03/11 10:59:58;;;;;;;;;;;;;;;-140.72;0.00;53082.84;5076466;28;19916;-70
2023/03/11 11:02:37;;;;;;;;;;;;;;;-140.72;0.00;53048.34;5076627;28;20357;-71
2023/03/11 11:05:20;;;;;;;;;;;;;;;-140.72;0.00;53084.88;5072337;28;19944;-74
2023/03/11 11:07:51;;;;;;;;;;;;;;;-140.72;0.00;53030.09;5071098;28;19960;-72
2023/03/11 11:10:21;;;;;;;;;;;;;;;-140.72;0.00;53019.94;5102538;28;19990;-72
2023/03/11 11:12:50;;;;;;;;;;;;;;;-140.72;0.00;52989.50;5060725;28;19972;-70
2023/03/11 11:15:23;;;;;;;;;;;;;;;-140.72;0.00;53042.25;5073717;28;19921;-74
2023/03/11 11:18:03;;;;;;;;;;;;;;;-140.72;0.00;52971.22;5073938;28;19982;-71
2023/03/11 11:20:30;;;;;;;;;;;;;;;-140.72;0.00;52914.41;5076472;28;19938;-71
2023/03/11 11:22:57;;;;;;;;;;;;;;;-140.72;0.00;52908.31;5076600;28;20251;-72
2023/03/11 11:25:25;;;;;;;;;;;;;;;-140.72;0.00;52898.16;5075813;28;19917;-71
2023/03/11 11:27:55;;;;;;;;;;;;;;;-140.72;0.00;52912.38;5074892;28;19923;-73
2023/03/11 11:30:20;;;;;;;;;;;;;;;-140.72;0.00;52883.97;5072309;28;20007;-70
2023/03/11 11:32:45;;;;;;;;;;;;;;;-140.72;0.00;52888.03;5076300;28;19978;-70
2023/03/11 11:35:19;;;;;;;;;;;;;;;-140.72;0.00;52877.88;5073643;28;20306;-72
2023/03/11 11:37:46;;;;;;;;;;;;;;;-140.72;0.00;52845.41;5073754;28;19924;-71
2023/03/11 11:40:14;;;;;;;;;;;;;;;-140.72;0.00;52831.19;5075739;28;20430;-72
2023/03/11 11:42:51;;;;;;;;;;;;;;;-140.72;0.00;52865.69;5074333;28;19916;-72
2023/03/11 11:45:23;;;;;;;;;;;;;;;-140.72;0.00;52861.66;5075055;28;19939;-72
2023/03/11 11:47:51;;;;;;;;;;;;;;;-140.72;0.00;52772.34;5074188;28;19927;-72
2023/03/11 11:50:40;;;;;;;;;;;;;;;-140.72;0.00;52798.72;5074467;28;20075;-70
2023/03/11 11:53:12;;;;;;;;;;;;;;;-140.72;0.00;52819.03;5067162;28;19927;-71
2023/03/11 11:55:40;;;;;;;;;;;;;;;-140.72;0.00;52764.25;5069899;28;19944;-72
2023/03/11 11:58:11;;;;;;;;;;;;;;;-140.72;0.00;52739.88;5073758;28;19946;-72
2023/03/11 12:00:39;;;;;;;;;;;;;;;-140.72;0.00;52750.03;5076128;28;19923;-77
2023/03/11 12:03:14;;;;;;;;;;;;;;;-140.72;0.00;52752.06;5076382;28;19927;-74
2023/03/11 12:06:00;;;;;;;;;;;;;;;-140.72;0.00;52823.09;5107696;28;20248;-72
2023/03/11 12:08:38;;;;;;;;;;;;;;;-140.72;0.00;52717.56;5075530;28;20007;-74
2023/03/11 12:11:05;;;;;;;;;;;;;;;-140.72;0.00;52687.13;5105798;28;19917;-74
2023/03/11 12:13:36;;;;;;;;;;;;;;;-140.72;0.00;52748.00;5074639;28;19940;-73
2023/03/11 12:16:07;;;;;;;;;;;;;;;-140.72;0.00;52693.22;5075534;28;20346;-73
2023/03/11 12:18:42;;;;;;;;;;;;;;;-140.72;0.00;52709.44;5104888;27;20316;-74
2023/03/11 12:21:35;;;;;;;;;;;;;;;-140.72;0.00;52668.84;5077464;28;20389;-74
2023/03/11 12:24:15;;;;;;;;;;;;;;;-140.72;0.00;52644.50;5067058;28;19927;-73
2023/03/11 12:26:42;;;;;;;;;;;;;;;-140.72;0.00;52709.44;5068978;28;19917;-74
2023/03/11 12:29:27;;;;;;;;;;;;;;;-140.72;0.00;52737.84;5099707;28;19948;-74
2023/03/11 12:32:00;;;;;;;;;;;;;;;-140.72;0.00;52731.75;5087595;28;20381;-74
2023/03/11 12:34:27;;;;;;;;;;;;;;;-140.72;0.00;52713.50;5071243;28;20007;-73
2023/03/11 12:39:55;;;;;;;;;;;;;;;-140.72;0.00;52729.75;5070692;28;19923;-72
2023/03/11 12:42:53;;;;;;;;;;;;;;;-140.72;0.00;52660.75;5072395;28;19925;-72
2023/03/11 12:45:37;;;;;;;;;;;;;;;-140.72;0.00;52603.94;5044614;28;20346;-72
2023/03/11 12:48:21;;;;;;;;;;;;;;;-140.72;0.00;52666.84;5068027;28;19969;-72
2023/03/11 12:50:47;;;;;;;;;;;;;;;-140.72;0.00;52652.63;5100921;27;19923;-72
2023/03/11 12:53:15;;;;;;;;;;;;;;;-140.72;0.00;52589.72;5072882;28;19920;-72
2023/03/11 12:56:00;;;;;;;;;;;;;;;-140.72;0.00;52628.28;5074320;28;19923;-72